This is the latest recevied weather packets stored in our database for station/object KF7PIZ. If no packets are shown the sender has not sent any weather packets the latest 10 day(s).
| Time | Temp. | Humidity | Pressure | Rain* | Wind** | Luminosity | Snow |
|---|---|---|---|---|---|---|---|
| 1777228029 | 12.78° C | 42% | 1009.1 hPa | 0 mm | - | 179 W/m² | - |
| 1777227728 | 12.78° C | 40% | 1009.2 hPa | 0 mm | - | 208 W/m² | - |
| 1777227424 | 12.78° C | 39% | 1009.4 hPa | 0 mm | - | 303 W/m² | - |
| 1777227120 | 12.22° C | 42% | 1009.3 hPa | 0 mm | - | 323 W/m² | - |
| 1777226817 | 12.22° C | 41% | 1009.2 hPa | 0 mm | - | 344 W/m² | - |
| 1777226515 | 11.67° C | 45% | 1009.3 hPa | 0 mm | - | 430 W/m² | - |
| 1777226212 | 11.67° C | 41% | 1009.2 hPa | 0 mm | - | 179 W/m² | - |
| 1777225908 | 11.67° C | 44% | 1009.1 hPa | 0 mm | - | 129 W/m² | - |
| 1777225604 | 11.11° C | 43% | 1009.2 hPa | 0 mm | - | 121 W/m² | - |
| 1777225302 | 10.56° C | 44% | 1009.1 hPa | 0 mm | - | 145 W/m² | - |
| 1777224998 | 10.56° C | 44% | 1009 hPa | 0 mm | - | 141 W/m² | - |
| 1777224696 | 11.11° C | 42% | 1009.1 hPa | 0 mm | - | 158 W/m² | - |
| 1777224395 | 11.11° C | 42% | 1009.1 hPa | 0 mm | - | 181 W/m² | - |
| 1777224092 | 11.67° C | 41% | 1009.1 hPa | 0 mm | - | 184 W/m² | - |
| 1777223789 | 11.11° C | 39% | 1009.1 hPa | 0 mm | - | 183 W/m² | - |
| 1777223485 | 11.11° C | 40% | 1009 hPa | 0 mm | - | 644 W/m² | - |
| 1777223183 | 12.22° C | 41% | 1009.1 hPa | 0 mm | - | 528 W/m² | - |
| 1777222880 | 12.22° C | 42% | 1009 hPa | 0 mm | - | 668 W/m² | - |
| 1777222577 | 12.22° C | 43% | 1009 hPa | 0 mm | - | 511 W/m² | - |
| 1777222275 | 15° C | 40% | 1008.5 hPa | 0 mm | - | 517 W/m² | - |
| 1777221973 | 15° C | 36% | 1008.9 hPa | 0 mm | - | 590 W/m² | - |
| 1777221668 | 13.33° C | 43% | 1008.8 hPa | 0 mm | - | 562 W/m² | - |
| 1777221365 | 12.78° C | 43% | 1008.5 hPa | 0 mm | - | 537 W/m² | - |
| 1777221063 | 11.67° C | 46% | 1008.6 hPa | 0 mm | - | 525 W/m² | - |
| 1777220762 | 10° C | 49% | 1008.8 hPa | 0 mm | - | 432 W/m² | - |
* Rain latest hour (hover to see other rain measurements)
** Current wind speed in m/s (hover to see current wind gust speed)